Marlow Heights, Maryland
Current Conditions -  °F | °C
As of 6:58 AM on Friday 31 Oct 2014 (Local Time) from KADW Reporting Station
Clear Clear  
Wind Chill: 40°   Ceiling: Unl
Heat Index: 40°   Visibility: 10mi
Dew Point: 35°   Wind: 0mph
Humidity: 81%   Direction: NA
Pressure: 29.99"   Gusts: NA
Location:  38.8377°N, 76.9193°W
Report Text: KADW 311058Z AUTO 00000KT 10SM CLR 05/02 A2999 RMK AO2 SLP163 T00470017 $
Loading
Personal Weather Stations






























Interactive Weather Map
Tropical Storm Tracking
New forecast layout! Learn more

10-Day Weather Forecast

Advertisements
Track Severe Weather on mobile